Aviation Digital Data Service (ADDS)

Output produced by METARs form (1645 UTC 30 October 2020)
found at http://www.aviationweather.gov/metar/data/
 
KDHN 301639Z 36010G18KT 10SM FEW022 16/09 A3016 RMK AO2 T01610089
KDHN 301553Z 35009KT 10SM OVC020 15/08 A3016 RMK AO2 SLP213 T01500083
KDHN 301600Z 3016/3112 34010KT P6SM BKN020 
     FM301900 36007KT P6SM SKC